Time;durP1;ratioP1;P1;durP2;ratioP2;P2;SDS_P1;SDS_P2;PMS_P1;PMS_P2;Temp;Humidity;BMP_temperature;BMP_pressure;BME280_temperature;BME280_humidity;BME280_pressure;Samples;Min_cycle;Max_cycle;Signal;HPM_P1;HPM_P2
2021/12/19 00:01:33;;;;;;;5.33;1.40;;;8.40;99.90;;;;;;5121786;28;20472;-59
2021/12/19 00:04:15;;;;;;;6.67;3.37;;;8.40;99.90;;;;;;5121312;28;20448;-56
2021/12/19 00:09:27;;;;;;;2.60;1.80;;;8.30;99.90;;;;;;5120235;28;20409;-57
2021/12/19 00:11:54;;;;;;;1.53;1.20;;;8.30;99.90;;;;;;5120005;28;20452;-54
2021/12/19 00:14:23;;;;;;;3.53;1.97;;;8.20;99.90;;;;;;5119670;28;20494;-56
2021/12/19 00:16:50;;;;;;;1.67;1.23;;;8.30;99.90;;;;;;5132648;28;20469;-54
2021/12/19 00:19:17;;;;;;;3.97;2.17;;;8.30;99.90;;;;;;5132436;28;20439;-56
2021/12/19 00:21:44;;;;;;;4.37;1.80;;;8.30;99.90;;;;;;5124162;28;20507;-56
2021/12/19 00:24:11;;;;;;;3.97;1.20;;;8.30;99.90;;;;;;5124300;28;20514;-55
2021/12/19 00:26:38;;;;;;;1.77;1.13;;;8.30;99.90;;;;;;5124228;28;20798;-57
2021/12/19 00:29:06;;;;;;;5.03;1.97;;;8.20;99.90;;;;;;5123111;28;20441;-57
2021/12/19 00:31:34;;;;;;;14.73;2.53;;;8.20;99.90;;;;;;5122292;28;20456;-56
2021/12/19 00:34:01;;;;;;;8.90;2.43;;;8.20;99.90;;;;;;5119954;28;20725;-55
2021/12/19 00:36:30;;;;;;;4.63;2.33;;;8.20;99.90;;;;;;5119711;28;20541;-57
2021/12/19 00:38:57;;;;;;;6.80;2.47;;;8.20;99.90;;;;;;5119688;28;20498;-58
2021/12/19 00:41:24;;;;;;;3.20;2.00;;;8.10;99.90;;;;;;5119427;28;20441;-59
2021/12/19 00:43:55;;;;;;;3.10;2.00;;;8.10;99.90;;;;;;5119595;28;20449;-58
2021/12/19 00:46:24;;;;;;;2.60;1.20;;;8.10;99.90;;;;;;5119681;28;20660;-57
2021/12/19 00:48:54;;;;;;;2.80;1.47;;;8.20;99.90;;;;;;5119225;28;20560;-57
2021/12/19 00:51:23;;;;;;;8.63;3.00;;;8.20;99.90;;;;;;5119430;28;20475;-55
2021/12/19 00:53:51;;;;;;;3.50;2.10;;;8.10;99.90;;;;;;5119171;28;20437;-57
2021/12/19 00:56:20;;;;;;;3.27;1.90;;;8.10;99.90;;;;;;5119484;28;20532;-55
2021/12/19 00:58:47;;;;;;;13.33;3.50;;;8.10;99.90;;;;;;5120418;28;20461;-56
2021/12/19 01:01:15;;;;;;;5.90;2.80;;;8.20;99.90;;;;;;5118453;28;20460;-55
2021/12/19 01:03:44;;;;;;;3.37;3.07;;;8.20;99.90;;;;;;5119248;28;20444;-53
2021/12/19 01:06:12;;;;;;;4.23;2.87;;;8.20;99.90;;;;;;5118328;28;20482;-56
2021/12/19 01:08:39;;;;;;;8.53;2.97;;;8.10;99.90;;;;;;5119406;28;20432;-57
2021/12/19 01:11:06;;;;;;;3.17;2.30;;;8.10;99.90;;;;;;5119080;28;20784;-54
2021/12/19 01:13:33;;;;;;;3.13;2.60;;;8.10;99.90;;;;;;5118847;28;20456;-59
2021/12/19 01:16:02;;;;;;;8.83;2.90;;;8.10;99.90;;;;;;5118870;28;20473;-55
2021/12/19 01:18:29;;;;;;;5.37;3.03;;;8.10;99.90;;;;;;5118730;28;20473;-58
2021/12/19 01:20:56;;;;;;;4.93;2.97;;;8.00;99.90;;;;;;5118662;28;20515;-54
2021/12/19 01:23:24;;;;;;;7.40;4.27;;;8.00;99.90;;;;;;5118472;28;20473;-54
2021/12/19 01:25:53;;;;;;;4.70;1.73;;;8.00;99.90;;;;;;5118024;28;20449;-58
2021/12/19 01:28:20;;;;;;;4.87;3.00;;;8.00;99.90;;;;;;5118199;28;20460;-51
2021/12/19 01:30:47;;;;;;;3.83;2.20;;;8.00;99.90;;;;;;5117592;28;20461;-54
2021/12/19 01:33:14;;;;;;;3.73;2.53;;;8.00;99.90;;;;;;5118073;28;20774;-51
2021/12/19 01:35:41;;;;;;;9.07;3.23;;;8.00;99.90;;;;;;5120265;28;20469;-54
2021/12/19 01:38:07;;;;;;;9.50;3.87;;;8.00;99.90;;;;;;5120039;28;20459;-53
2021/12/19 01:40:36;;;;;;;5.47;3.20;;;8.00;99.90;;;;;;5125760;28;20421;-52
2021/12/19 01:43:06;;;;;;;7.63;2.93;;;8.00;99.90;;;;;;5134825;28;20465;-57
2021/12/19 01:45:35;;;;;;;3.73;3.13;;;8.00;99.90;;;;;;5134867;28;20470;-49
2021/12/19 01:48:04;;;;;;;8.27;2.50;;;8.00;99.90;;;;;;5133044;28;20461;-50
2021/12/19 01:50:33;;;;;;;8.03;4.50;;;8.00;99.90;;;;;;5134923;28;20461;-51
2021/12/19 01:53:00;;;;;;;3.63;2.87;;;8.00;99.90;;;;;;5135304;28;20492;-51
2021/12/19 01:55:27;;;;;;;3.87;2.73;;;8.00;99.90;;;;;;5135991;28;20480;-42
2021/12/19 01:57:57;;;;;;;3.47;2.97;;;8.00;99.90;;;;;;5135606;28;20495;-48
2021/12/19 02:00:26;;;;;;;8.23;3.73;;;8.00;99.90;;;;;;5136289;28;20413;-52
2021/12/19 02:02:56;;;;;;;6.40;3.87;;;8.00;99.90;;;;;;5136032;28;20441;-51
2021/12/19 02:05:24;;;;;;;3.63;3.17;;;8.00;99.90;;;;;;5136143;28;20999;-49
2021/12/19 02:07:52;;;;;;;2.70;1.90;;;8.00;99.90;;;;;;5135722;28;20422;-54
2021/12/19 02:10:21;;;;;;;2.80;1.70;;;8.00;99.90;;;;;;5136495;28;20475;-53
2021/12/19 02:12:49;;;;;;;2.83;2.20;;;8.00;99.90;;;;;;5136068;28;20439;-61
2021/12/19 02:15:20;;;;;;;10.53;2.07;;;8.00;99.90;;;;;;5136238;28;20445;-56
2021/12/19 02:17:47;;;;;;;4.23;2.10;;;7.90;99.90;;;;;;5138717;28;20493;-50
2021/12/19 02:20:18;;;;;;;2.17;2.00;;;7.90;99.90;;;;;;5139605;28;20437;-45
2021/12/19 02:22:45;;;;;;;3.63;2.27;;;7.90;99.90;;;;;;5139771;28;20437;-59
2021/12/19 02:25:14;;;;;;;1.40;1.13;;;8.00;99.90;;;;;;5139383;28;20465;-52
2021/12/19 02:27:41;;;;;;;10.73;2.17;;;8.00;99.90;;;;;;5138715;28;20445;-50
2021/12/19 02:30:10;;;;;;;4.00;2.20;;;8.00;99.90;;;;;;5139407;28;20441;-48
2021/12/19 02:32:39;;;;;;;4.27;2.10;;;8.00;99.90;;;;;;5139074;28;20465;-52
2021/12/19 02:35:10;;;;;;;2.93;1.70;;;8.00;99.90;;;;;;5139712;28;20454;-51
2021/12/19 02:38:09;;;;;;;3.80;1.70;;;8.00;99.90;;;;;;5139311;28;20460;-55
2021/12/19 02:48:49;;;;;;;2.13;1.23;;;8.10;99.90;;;;;;5139078;28;20409;-52
2021/12/19 02:51:16;;;;;;;4.03;1.93;;;8.10;99.90;;;;;;5138485;28;20449;-44
2021/12/19 02:53:45;;;;;;;2.77;1.20;;;8.10;99.90;;;;;;5138662;28;20469;-50
2021/12/19 02:56:12;;;;;;;9.40;1.83;;;8.20;99.90;;;;;;5138650;28;20473;-54
2021/12/19 02:58:42;;;;;;;1.20;0.97;;;8.10;99.90;;;;;;5138683;28;20425;-47
2021/12/19 03:01:12;;;;;;;2.20;1.27;;;8.10;99.90;;;;;;5138162;28;20464;-51
2021/12/19 03:03:39;;;;;;;2.00;1.40;;;8.20;99.90;;;;;;5137939;28;20472;-54
2021/12/19 03:06:06;;;;;;;3.70;1.30;;;8.10;99.90;;;;;;5138014;28;20445;-54
2021/12/19 03:08:33;;;;;;;1.93;1.73;;;8.00;99.90;;;;;;5138407;28;20477;-46
2021/12/19 03:17:57;;;;;;;2.17;1.30;;;8.00;99.90;;;;;;5138288;28;20421;-49
2021/12/19 03:19:23;;;;;;;8.20;1.83;;;8.00;99.90;;;;;;5138499;28;20420;-48
2021/12/19 03:21:50;;;;;;;1.47;1.30;;;8.10;99.90;;;;;;5138138;28;20460;-51
2021/12/19 03:24:17;;;;;;;3.10;1.40;;;8.10;99.90;;;;;;5137806;28;20510;-51
2021/12/19 03:26:45;;;;;;;1.30;1.00;;;8.10;99.90;;;;;;5138109;28;20471;-51
2021/12/19 03:29:12;;;;;;;2.00;1.43;;;8.00;99.90;;;;;;5136471;28;20461;-49
2021/12/19 03:31:38;;;;;;;4.70;1.63;;;8.00;99.90;;;;;;5136735;28;20480;-55
2021/12/19 03:34:05;;;;;;;1.40;1.27;;;8.00;99.90;;;;;;5137096;28;20449;-49
2021/12/19 03:36:32;;;;;;;1.57;1.10;;;8.00;99.90;;;;;;5136628;28;20529;-45
2021/12/19 03:39:13;;;;;;;1.40;1.00;;;8.00;99.90;;;;;;5136671;28;20505;-56
2021/12/19 03:41:43;;;;;;;1.80;1.10;;;7.90;99.90;;;;;;5136884;28;20463;-49
2021/12/19 03:44:11;;;;;;;2.60;1.23;;;7.90;99.90;;;;;;5137193;28;20429;-50
2021/12/19 03:46:37;;;;;;;2.80;1.23;;;8.00;99.90;;;;;;5136695;28;20437;-47
2021/12/19 03:49:05;;;;;;;1.57;1.20;;;8.00;99.90;;;;;;5136994;28;20441;-51
2021/12/19 03:51:32;;;;;;;4.30;1.40;;;8.10;99.90;;;;;;5136030;28;20453;-49
2021/12/19 03:53:58;;;;;;;4.60;1.70;;;8.10;99.90;;;;;;5136946;28;20489;-51
2021/12/19 03:56:27;;;;;;;4.70;1.70;;;8.10;99.90;;;;;;5136405;28;20487;-43
2021/12/19 03:58:54;;;;;;;2.83;1.33;;;8.10;99.90;;;;;;5136734;28;20459;-51
2021/12/19 04:01:22;;;;;;;1.30;1.17;;;8.10;99.90;;;;;;5136374;28;20441;-49
2021/12/19 04:03:49;;;;;;;2.83;1.20;;;8.10;99.90;;;;;;5136468;28;20513;-48
2021/12/19 04:06:15;;;;;;;2.90;1.60;;;8.10;99.90;;;;;;5136375;28;20436;-53
2021/12/19 04:08:42;;;;;;;5.10;2.20;;;8.10;99.90;;;;;;5136582;28;20457;-46
2021/12/19 04:11:09;;;;;;;6.10;2.37;;;8.10;99.90;;;;;;5136571;28;20491;-53
2021/12/19 04:13:36;;;;;;;3.43;1.50;;;8.10;99.90;;;;;;5136840;28;20402;-51
2021/12/19 04:16:03;;;;;;;5.10;1.70;;;8.20;99.90;;;;;;5136705;28;20468;-50
2021/12/19 04:18:31;;;;;;;1.90;1.47;;;8.20;99.90;;;;;;5136251;28;20485;-53
2021/12/19 04:20:59;;;;;;;4.03;1.73;;;8.20;99.90;;;;;;5136274;28;20437;-55
2021/12/19 04:23:30;;;;;;;2.80;1.60;;;8.20;99.90;;;;;;5136249;28;20461;-48
2021/12/19 04:25:57;;;;;;;2.10;1.70;;;8.20;99.90;;;;;;5136256;28;20457;-54
2021/12/19 04:28:24;;;;;;;2.17;1.67;;;8.20;99.90;;;;;;5136229;28;20437;-47
2021/12/19 04:30:50;;;;;;;1.60;1.50;;;8.20;99.90;;;;;;5136161;28;20443;-53
2021/12/19 04:33:17;;;;;;;5.67;2.33;;;8.20;99.90;;;;;;5135861;28;20445;-49
2021/12/19 04:35:45;;;;;;;2.70;1.87;;;8.20;99.90;;;;;;5136164;28;20452;-50
2021/12/19 04:41:34;;;;;;;1.77;1.30;;;8.30;99.90;;;;;;5134832;28;20443;-49
2021/12/19 04:44:24;;;;;;;3.47;1.30;;;8.20;99.90;;;;;;5135859;28;20433;-51
2021/12/19 04:55:36;;;;;;;5.13;1.50;;;8.30;99.90;;;;;;5136168;28;20445;-52
2021/12/19 04:58:18;;;;;;;10.73;2.77;;;8.30;99.90;;;;;;5136001;28;20467;-51
2021/12/19 05:00:55;;;;;;;6.83;2.47;;;8.20;99.90;;;;;;5135838;28;20464;-53
2021/12/19 05:03:32;;;;;;;3.20;1.93;;;8.20;99.90;;;;;;5135659;28;20469;-56
2021/12/19 05:06:05;;;;;;;4.27;2.10;;;8.20;99.90;;;;;;5136139;28;20413;-52
2021/12/19 05:16:46;;;;;;;5.53;2.30;;;8.30;99.90;;;;;;5135223;27;20528;-48
2021/12/19 05:19:26;;;;;;;5.63;2.30;;;8.30;99.90;;;;;;5135864;28;20994;-53
2021/12/19 05:21:56;;;;;;;2.40;1.80;;;8.20;99.90;;;;;;5135404;28;20478;-48
2021/12/19 05:27:15;;;;;;;2.10;1.87;;;8.30;99.90;;;;;;5114319;28;20472;-49
2021/12/19 05:29:41;;;;;;;5.23;2.60;;;8.30;99.90;;;;;;5135308;28;20475;-53
2021/12/19 05:32:09;;;;;;;6.40;2.63;;;8.30;99.90;;;;;;5135739;28;21511;-52
2021/12/19 05:34:36;;;;;;;3.33;1.90;;;8.30;99.90;;;;;;5135736;28;20418;-52
2021/12/19 05:45:29;;;;;;;4.23;1.70;;;8.20;99.90;;;;;;5072812;28;20439;-50
2021/12/19 05:47:57;;;;;;;5.17;2.07;;;8.20;99.90;;;;;;5120212;28;20899;-55
2021/12/19 05:50:24;;;;;;;5.43;1.63;;;8.20;99.90;;;;;;5135053;28;20461;-50
2021/12/19 05:52:52;;;;;;;4.80;2.23;;;8.20;99.90;;;;;;5138583;28;20430;-54
2021/12/19 05:55:20;;;;;;;5.93;1.97;;;8.20;99.90;;;;;;5139356;28;20471;-51
2021/12/19 05:57:47;;;;;;;4.20;1.73;;;8.20;99.90;;;;;;5139239;28;20531;-50
2021/12/19 06:00:17;;;;;;;5.23;1.87;;;8.20;99.90;;;;;;5139517;28;20440;-55
2021/12/19 06:02:44;;;;;;;3.20;1.83;;;8.20;99.90;;;;;;5139588;28;20448;-51
2021/12/19 06:05:12;;;;;;;10.57;2.63;;;8.20;99.90;;;;;;5139287;28;20436;-50
2021/12/19 06:07:39;;;;;;;2.03;1.37;;;8.20;99.90;;;;;;5139843;28;20448;-50
2021/12/19 06:10:07;;;;;;;2.57;1.50;;;8.20;99.90;;;;;;5139346;28;20441;-52
2021/12/19 06:12:37;;;;;;;3.70;1.87;;;8.20;99.90;;;;;;5138757;28;20448;-53
2021/12/19 06:15:04;;;;;;;5.60;2.20;;;8.10;99.90;;;;;;5139077;28;20564;-54
2021/12/19 06:17:33;;;;;;;3.00;1.67;;;8.10;99.90;;;;;;5139265;28;20469;-51
2021/12/19 06:19:59;;;;;;;8.27;2.07;;;8.10;99.90;;;;;;5138530;28;20449;-50
2021/12/19 06:22:26;;;;;;;3.73;2.00;;;8.10;99.90;;;;;;5139221;28;20463;-54
2021/12/19 06:24:52;;;;;;;6.93;2.80;;;8.10;99.90;;;;;;5138785;28;20445;-53
2021/12/19 06:27:19;;;;;;;9.63;1.70;;;8.10;99.90;;;;;;5138943;28;20491;-49
2021/12/19 06:29:49;;;;;;;3.10;2.00;;;8.10;99.90;;;;;;5139583;28;20417;-52
2021/12/19 06:32:16;;;;;;;2.13;1.30;;;8.10;99.90;;;;;;5138919;28;20440;-49
2021/12/19 06:34:43;;;;;;;3.03;1.43;;;8.10;99.90;;;;;;5139021;28;20475;-55
2021/12/19 06:37:10;;;;;;;10.87;2.00;;;8.00;99.90;;;;;;5138609;28;20473;-51
2021/12/19 06:39:38;;;;;;;3.17;1.93;;;8.00;99.90;;;;;;5139114;28;20485;-53
2021/12/19 06:42:07;;;;;;;4.80;1.80;;;8.00;99.90;;;;;;5138538;28;20961;-50
2021/12/19 06:44:36;;;;;;;2.60;1.67;;;7.90;99.90;;;;;;5138490;28;20466;-42
2021/12/19 06:47:05;;;;;;;2.60;2.10;;;7.90;99.90;;;;;;5138183;28;20972;-47
2021/12/19 06:49:32;;;;;;;2.30;1.67;;;7.90;99.90;;;;;;5138685;28;20453;-52
2021/12/19 06:51:59;;;;;;;1.43;1.10;;;7.90;99.90;;;;;;5137971;28;20498;-54
2021/12/19 06:54:25;;;;;;;1.87;0.83;;;7.90;99.90;;;;;;5138077;28;20809;-53
2021/12/19 06:56:52;;;;;;;1.80;0.87;;;7.80;99.90;;;;;;5138324;28;20520;-49
2021/12/19 06:59:18;;;;;;;2.17;1.40;;;7.80;99.90;;;;;;5138253;28;20453;-53
2021/12/19 07:01:45;;;;;;;1.90;1.33;;;7.90;99.90;;;;;;5137962;28;20432;-46
2021/12/19 07:04:13;;;;;;;1.57;1.00;;;7.90;99.90;;;;;;5137186;28;20461;-50
2021/12/19 07:06:40;;;;;;;1.33;1.00;;;7.90;99.90;;;;;;5137994;28;20475;-46
2021/12/19 07:09:06;;;;;;;10.00;1.40;;;7.90;99.90;;;;;;5137518;28;20436;-48
2021/12/19 07:11:33;;;;;;;2.17;1.20;;;7.90;99.90;;;;;;5138242;28;20435;-50
2021/12/19 07:14:00;;;;;;;5.33;1.50;;;8.00;99.90;;;;;;5138314;28;20913;-56
2021/12/19 07:16:26;;;;;;;3.53;1.20;;;8.00;99.90;;;;;;5137788;28;20449;-50
2021/12/19 07:18:53;;;;;;;2.93;1.60;;;7.90;99.90;;;;;;5137641;28;20472;-51
2021/12/19 07:21:23;;;;;;;1.20;1.10;;;7.90;99.90;;;;;;5137266;28;20441;-49
2021/12/19 07:23:50;;;;;;;3.87;1.80;;;7.90;99.90;;;;;;5137963;28;20436;-53
2021/12/19 07:26:16;;;;;;;2.47;2.27;;;7.90;99.90;;;;;;5137461;28;20441;-49
2021/12/19 07:28:45;;;;;;;3.10;1.20;;;7.90;99.90;;;;;;5137824;28;20453;-54
2021/12/19 07:31:12;;;;;;;6.10;1.20;;;7.90;99.90;;;;;;5137843;28;20441;-55
2021/12/19 07:33:43;;;;;;;5.47;1.60;;;7.80;99.90;;;;;;5137660;28;20483;-49
2021/12/19 07:36:09;;;;;;;2.80;1.40;;;7.80;99.90;;;;;;5137608;28;20425;-49
2021/12/19 07:38:49;;;;;;;5.83;1.97;;;7.80;99.90;;;;;;5137088;28;20484;-49
2021/12/19 07:41:16;;;;;;;2.07;1.80;;;7.80;99.90;;;;;;5137529;28;20497;-53
2021/12/19 07:43:42;;;;;;;1.43;1.23;;;7.80;99.90;;;;;;5136758;28;20437;-56
2021/12/19 07:46:09;;;;;;;3.50;1.87;;;7.80;99.90;;;;;;5131238;28;20491;-48
2021/12/19 07:48:36;;;;;;;2.30;1.47;;;7.70;99.90;;;;;;5131423;28;20441;-52
2021/12/19 07:51:03;;;;;;;1.40;1.10;;;7.70;99.90;;;;;;5131030;28;20471;-54
2021/12/19 07:53:29;;;;;;;3.20;1.77;;;7.80;99.90;;;;;;5130956;28;20441;-55
2021/12/19 07:55:57;;;;;;;4.50;1.10;;;7.80;99.90;;;;;;5129541;28;20762;-53
2021/12/19 07:58:24;;;;;;;1.83;0.87;;;7.80;99.90;;;;;;5131088;28;20920;-55
2021/12/19 08:00:51;;;;;;;1.57;0.70;;;7.70;99.90;;;;;;5131613;28;20889;-53
2021/12/19 08:03:17;;;;;;;1.30;0.80;;;7.70;99.90;;;;;;5131470;28;20514;-51
2021/12/19 08:05:44;;;;;;;0.90;0.60;;;7.60;99.90;;;;;;5131619;28;20441;-55
2021/12/19 08:08:16;;;;;;;1.40;1.00;;;7.50;99.90;;;;;;5127449;28;20954;-53
2021/12/19 08:13:28;;;;;;;2.23;0.80;;;7.60;99.90;;;;;;5122395;28;20415;-52
2021/12/19 08:15:55;;;;;;;1.83;0.70;;;7.60;99.90;;;;;;5121894;28;20445;-53
2021/12/19 08:18:22;;;;;;;1.10;0.80;;;7.60;99.90;;;;;;5121460;28;20541;-53
2021/12/19 08:20:48;;;;;;;1.73;1.17;;;7.60;99.90;;;;;;5121908;28;20448;-55
2021/12/19 08:23:15;;;;;;;1.00;0.90;;;7.60;99.90;;;;;;5122322;28;20481;-55
2021/12/19 08:25:42;;;;;;;1.23;0.93;;;7.60;99.90;;;;;;5122679;28;20502;-53
2021/12/19 08:28:08;;;;;;;2.10;2.00;;;7.50;99.90;;;;;;5122195;28;20986;-54
2021/12/19 08:30:38;;;;;;;1.20;0.90;;;7.50;99.90;;;;;;5122999;28;20437;-53
2021/12/19 08:33:05;;;;;;;2.57;0.87;;;7.50;99.90;;;;;;5122713;28;20474;-54
2021/12/19 08:35:33;;;;;;;5.20;0.80;;;7.40;99.90;;;;;;5122668;28;20461;-50
2021/12/19 08:38:00;;;;;;;1.00;0.70;;;7.50;99.90;;;;;;5122596;28;20517;-53
2021/12/19 08:40:31;;;;;;;1.23;0.80;;;7.40;99.90;;;;;;5121888;28;20445;-53
2021/12/19 08:42:59;;;;;;;1.20;0.90;;;7.40;99.90;;;;;;5123013;28;20476;-56
2021/12/19 08:45:26;;;;;;;1.10;0.93;;;7.40;99.90;;;;;;5122178;28;20501;-56
2021/12/19 08:47:54;;;;;;;6.10;1.00;;;7.40;99.90;;;;;;5121894;28;20491;-55
2021/12/19 08:50:23;;;;;;;1.97;1.20;;;7.40;99.90;;;;;;5131755;28;20844;-51
2021/12/19 08:52:52;;;;;;;1.50;1.00;;;7.30;99.90;;;;;;5122275;28;20465;-57
2021/12/19 08:55:19;;;;;;;1.00;0.63;;;7.30;99.90;;;;;;5122309;28;20429;-56
2021/12/19 08:57:46;;;;;;;2.90;1.23;;;7.20;99.90;;;;;;5122455;28;20498;-57
2021/12/19 09:00:14;;;;;;;1.20;0.77;;;7.20;99.90;;;;;;5131125;28;20457;-51
2021/12/19 09:02:44;;;;;;;1.57;1.03;;;7.20;99.90;;;;;;5129034;28;20479;-55
2021/12/19 09:05:12;;;;;;;2.87;0.83;;;7.30;99.90;;;;;;5130635;28;20469;-55
2021/12/19 09:07:39;;;;;;;1.20;0.97;;;7.30;99.90;;;;;;5130956;28;20482;-55
2021/12/19 09:10:07;;;;;;;2.40;1.77;;;7.40;99.90;;;;;;5131094;28;20478;-55
2021/12/19 09:12:34;;;;;;;0.90;0.70;;;7.40;99.90;;;;;;5131586;28;20495;-50
2021/12/19 09:15:01;;;;;;;1.57;1.17;;;7.30;99.90;;;;;;5131789;28;20494;-52
2021/12/19 09:17:27;;;;;;;1.30;0.80;;;7.30;99.90;;;;;;5131739;28;20544;-49
2021/12/19 09:19:56;;;;;;;0.90;0.70;;;7.30;99.90;;;;;;5131631;28;20507;-48
2021/12/19 09:22:25;;;;;;;1.57;1.20;;;7.30;99.90;;;;;;5131555;28;20482;-52
2021/12/19 09:24:51;;;;;;;1.70;1.30;;;7.20;99.90;;;;;;5132584;28;20526;-56
2021/12/19 09:27:18;;;;;;;1.47;1.10;;;7.20;99.90;;;;;;5131755;28;20445;-56
2021/12/19 09:29:45;;;;;;;1.30;1.00;;;7.20;99.90;;;;;;5131844;28;20464;-53
2021/12/19 09:32:11;;;;;;;1.30;0.83;;;7.20;99.90;;;;;;5132246;28;20442;-52
2021/12/19 09:34:38;;;;;;;1.40;1.17;;;7.20;99.90;;;;;;5131656;28;20447;-54
2021/12/19 09:37:07;;;;;;;1.33;1.20;;;7.20;99.90;;;;;;5122506;28;20444;-53
2021/12/19 09:39:35;;;;;;;3.73;0.70;;;7.20;99.90;;;;;;5127179;28;20476;-52
2021/12/19 09:42:09;;;;;;;1.60;1.43;;;7.30;99.90;;;;;;5131851;28;20465;-55
2021/12/19 09:44:37;;;;;;;1.43;1.10;;;7.20;99.90;;;;;;5130835;28;20429;-55
2021/12/19 09:47:05;;;;;;;3.30;1.40;;;7.20;99.90;;;;;;5131105;28;20476;-54
2021/12/19 09:49:34;;;;;;;1.53;1.40;;;7.30;99.90;;;;;;5130311;28;20472;-56
2021/12/19 09:52:02;;;;;;;1.37;1.00;;;7.30;99.90;;;;;;5131543;28;20475;-51
2021/12/19 09:54:29;;;;;;;1.30;0.80;;;7.30;99.90;;;;;;5130445;28;20519;-54
2021/12/19 09:56:58;;;;;;;3.83;1.27;;;7.30;99.90;;;;;;5130263;28;20444;-50
2021/12/19 09:59:26;;;;;;;2.03;0.90;;;7.30;99.90;;;;;;5126328;28;20798;-58
2021/12/19 10:01:53;;;;;;;1.20;1.10;;;7.40;99.90;;;;;;5123294;28;20455;-59
2021/12/19 10:04:29;;;;;;;3.33;0.97;;;7.40;99.90;;;;;;5123956;28;20445;-57
2021/12/19 10:07:05;;;;;;;2.53;1.00;;;7.40;99.90;;;;;;5124655;28;20461;-59
2021/12/19 10:09:31;;;;;;;1.10;0.80;;;7.50;99.90;;;;;;5125532;28;20432;-55
2021/12/19 10:12:24;;;;;;;1.30;1.20;;;7.50;99.90;;;;;;5125313;28;20475;-57
2021/12/19 10:14:54;;;;;;;1.50;1.20;;;7.40;99.90;;;;;;5125477;28;20907;-58
2021/12/19 10:17:20;;;;;;;3.33;1.00;;;7.40;99.90;;;;;;5124476;28;20445;-58
2021/12/19 10:19:51;;;;;;;1.97;1.00;;;7.50;99.90;;;;;;5124215;28;20479;-54
2021/12/19 10:22:25;;;;;;;3.10;1.27;;;7.50;99.90;;;;;;5124226;28;20441;-55
2021/12/19 10:24:52;;;;;;;1.57;1.00;;;7.40;99.90;;;;;;5124536;28;20527;-58
2021/12/19 10:27:33;;;;;;;2.90;1.50;;;7.40;99.90;;;;;;5123725;28;20448;-58
2021/12/19 10:30:09;;;;;;;1.53;0.90;;;7.40;99.90;;;;;;5124450;28;20425;-57
2021/12/19 10:32:35;;;;;;;2.13;1.23;;;7.40;99.90;;;;;;5124410;28;20494;-59
2021/12/19 10:35:15;;;;;;;1.63;0.90;;;7.50;99.90;;;;;;5123686;28;20452;-55
2021/12/19 10:37:45;;;;;;;2.00;1.20;;;7.50;99.90;;;;;;5125235;28;20473;-57
2021/12/19 10:40:13;;;;;;;1.27;0.73;;;7.60;99.90;;;;;;5126829;28;20480;-57
2021/12/19 10:42:55;;;;;;;2.53;0.87;;;7.70;99.90;;;;;;5127379;28;20441;-55
2021/12/19 10:45:31;;;;;;;1.97;1.00;;;7.60;99.90;;;;;;5126437;28;20434;-56
2021/12/19 10:48:29;;;;;;;4.70;1.90;;;7.60;99.90;;;;;;5126827;28;20452;-53
2021/12/19 10:51:02;;;;;;;2.50;1.17;;;7.70;99.90;;;;;;5126717;28;20445;-58
2021/12/19 10:53:35;;;;;;;1.40;1.00;;;7.70;99.90;;;;;;5127256;28;20429;-56
2021/12/19 10:56:04;;;;;;;2.57;0.97;;;7.70;99.90;;;;;;5127025;28;20464;-58
2021/12/19 10:58:39;;;;;;;2.37;1.23;;;7.70;99.90;;;;;;5126404;28;20487;-56
2021/12/19 11:01:12;;;;;;;1.20;1.00;;;7.80;99.90;;;;;;5126628;28;20563;-57
2021/12/19 11:03:42;;;;;;;1.00;0.70;;;7.70;99.90;;;;;;5127193;28;20437;-58
2021/12/19 11:06:32;;;;;;;3.20;1.17;;;7.70;99.90;;;;;;5127012;28;20461;-55
2021/12/19 11:09:00;;;;;;;1.30;0.90;;;7.70;99.90;;;;;;5129913;28;20497;-57
2021/12/19 11:11:41;;;;;;;1.23;0.90;;;7.70;99.90;;;;;;5129299;28;20931;-56
2021/12/19 11:14:11;;;;;;;2.20;1.00;;;7.70;99.90;;;;;;5127629;28;20473;-57
2021/12/19 11:16:38;;;;;;;10.13;3.80;;;7.70;99.90;;;;;;5126547;28;20425;-59
2021/12/19 11:19:05;;;;;;;2.47;1.10;;;7.70;99.90;;;;;;5121640;28;20972;-54
2021/12/19 11:21:34;;;;;;;2.20;1.17;;;7.60;99.90;;;;;;5121449;28;20467;-49
2021/12/19 11:24:03;;;;;;;3.10;1.20;;;7.60;99.90;;;;;;5119211;28;20437;-55
2021/12/19 11:26:31;;;;;;;2.40;0.90;;;7.60;99.90;;;;;;5117612;28;20453;-55
2021/12/19 11:28:58;;;;;;;1.80;1.17;;;7.60;99.90;;;;;;5117524;28;20434;-54
2021/12/19 11:31:31;;;;;;;2.73;1.53;;;7.60;99.90;;;;;;5117050;28;20466;-55
2021/12/19 11:34:23;;;;;;;5.80;1.60;;;7.60;99.90;;;;;;5117216;28;20460;-54
2021/12/19 11:36:56;;;;;;;1.47;1.13;;;7.50;99.90;;;;;;5114569;28;20468;-56
2021/12/19 11:39:28;;;;;;;1.40;1.17;;;7.60;99.90;;;;;;5116801;28;20469;-54
2021/12/19 11:42:10;;;;;;;1.90;1.00;;;7.60;99.90;;;;;;5117362;28;20454;-54
2021/12/19 11:44:47;;;;;;;8.03;1.73;;;7.50;99.90;;;;;;5131305;28;20413;-53
2021/12/19 11:47:38;;;;;;;5.13;1.07;;;7.50;99.90;;;;;;5137227;28;20489;-55
2021/12/19 11:50:21;;;;;;;3.80;1.87;;;7.60;99.90;;;;;;5136393;28;20486;-54
2021/12/19 11:52:49;;;;;;;1.47;0.90;;;7.50;99.90;;;;;;5137620;28;20432;-51
2021/12/19 11:55:25;;;;;;;1.30;0.93;;;7.50;99.90;;;;;;5136993;28;20471;-55
2021/12/19 11:58:19;;;;;;;3.70;1.30;;;7.50;99.90;;;;;;5137192;28;20425;-56
2021/12/19 12:00:50;;;;;;;2.20;0.83;;;7.50;99.90;;;;;;5137774;28;20704;-54
2021/12/19 12:03:39;;;;;;;1.97;1.30;;;7.50;99.90;;;;;;5138122;28;20405;-54
2021/12/19 12:06:39;;;;;;;1.47;0.80;;;7.40;99.90;;;;;;5138576;28;20468;-55
2021/12/19 12:09:15;;;;;;;0.93;0.80;;;7.40;99.90;;;;;;5139185;28;20422;-56
2021/12/19 12:12:09;;;;;;;2.13;0.80;;;7.40;99.90;;;;;;5139027;28;20489;-51
2021/12/19 12:14:39;;;;;;;1.50;1.17;;;7.30;99.90;;;;;;5138495;28;20437;-56
2021/12/19 12:17:10;;;;;;;4.53;1.27;;;7.30;99.90;;;;;;5138584;28;20484;-52
2021/12/19 12:19:41;;;;;;;0.90;0.70;;;7.40;99.90;;;;;;5137804;28;20475;-55
2021/12/19 12:22:31;;;;;;;6.10;1.47;;;7.40;99.90;;;;;;5138021;28;20548;-53
2021/12/19 12:25:11;;;;;;;1.57;1.20;;;7.40;99.90;;;;;;5137699;28;20409;-58
2021/12/19 12:27:39;;;;;;;2.60;1.50;;;7.40;99.90;;;;;;5138159;28;20473;-56
2021/12/19 12:30:08;;;;;;;2.53;1.23;;;7.50;99.90;;;;;;5137727;28;20483;-54
2021/12/19 12:32:35;;;;;;;3.57;1.67;;;7.50;99.90;;;;;;5137632;28;20445;-54
2021/12/19 12:35:04;;;;;;;2.70;1.50;;;7.50;99.90;;;;;;5137357;28;20416;-55
2021/12/19 12:37:32;;;;;;;3.00;1.27;;;7.50;99.90;;;;;;5136945;28;20455;-54
2021/12/19 12:40:22;;;;;;;2.20;1.07;;;7.50;99.90;;;;;;5137546;28;20472;-56
2021/12/19 12:43:10;;;;;;;2.90;1.20;;;7.60;99.90;;;;;;5131589;28;20433;-55
2021/12/19 12:46:09;;;;;;;1.20;1.10;;;7.50;99.90;;;;;;5116813;28;20445;-55
2021/12/19 12:48:42;;;;;;;1.67;1.50;;;7.50;99.90;;;;;;5119170;28;20430;-52
2021/12/19 12:51:12;;;;;;;1.87;1.00;;;7.50;99.90;;;;;;5123666;28;20865;-55
2021/12/19 12:53:44;;;;;;;2.50;1.20;;;7.50;99.90;;;;;;5119319;28;20448;-52
2021/12/19 12:56:15;;;;;;;1.30;0.80;;;7.40;99.90;;;;;;5122193;28;20530;-52
2021/12/19 12:58:48;;;;;;;3.43;1.13;;;7.50;99.90;;;;;;5119564;28;20512;-55
2021/12/19 13:01:17;;;;;;;3.60;1.30;;;7.50;99.90;;;;;;5118961;28;20461;-54
2021/12/19 13:03:59;;;;;;;0.90;0.70;;;7.60;99.90;;;;;;5123235;28;20436;-50
2021/12/19 13:06:56;;;;;;;3.07;1.30;;;7.50;99.90;;;;;;5124533;28;20453;-55
2021/12/19 13:09:32;;;;;;;10.70;1.33;;;7.50;99.90;;;;;;5120113;28;20417;-54
2021/12/19 13:12:02;;;;;;;6.93;2.40;;;7.50;99.90;;;;;;5119956;28;20425;-53
2021/12/19 13:14:31;;;;;;;1.70;1.17;;;7.50;99.90;;;;;;5122721;28;20471;-54
2021/12/19 13:17:01;;;;;;;0.90;0.80;;;7.50;99.90;;;;;;5124472;28;20532;-55
2021/12/19 13:19:57;;;;;;;1.73;1.10;;;7.50;99.90;;;;;;5119363;28;20495;-54
2021/12/19 13:22:32;;;;;;;1.53;1.20;;;7.50;99.90;;;;;;5117169;28;20578;-53
2021/12/19 13:25:05;;;;;;;2.60;1.10;;;7.50;99.90;;;;;;5118612;28;20460;-51
2021/12/19 13:27:34;;;;;;;3.97;1.00;;;7.60;99.90;;;;;;5119634;28;20462;-55
2021/12/19 13:30:11;;;;;;;6.13;1.07;;;7.60;99.90;;;;;;5119013;28;20472;-56
2021/12/19 13:32:39;;;;;;;3.13;1.17;;;7.50;99.90;;;;;;5117805;28;20475;-58
2021/12/19 13:35:09;;;;;;;2.63;1.80;;;7.50;99.90;;;;;;5117461;28;20453;-55
2021/12/19 13:38:08;;;;;;;1.40;0.90;;;7.60;99.90;;;;;;5117852;28;20477;-56
2021/12/19 13:40:37;;;;;;;2.13;0.80;;;7.60;99.90;;;;;;5111757;28;20537;-55
2021/12/19 13:43:06;;;;;;;6.23;1.00;;;7.60;99.90;;;;;;5116800;28;20499;-54
2021/12/19 13:45:48;;;;;;;1.77;1.00;;;7.60;99.90;;;;;;5116267;28;20481;-53
2021/12/19 13:48:22;;;;;;;2.33;0.80;;;7.60;99.90;;;;;;5116880;28;20465;-56
2021/12/19 13:50:53;;;;;;;3.10;1.10;;;7.70;99.90;;;;;;5116545;28;20934;-54
2021/12/19 13:53:22;;;;;;;2.43;1.23;;;7.70;99.90;;;;;;5116803;28;20525;-54
2021/12/19 13:55:52;;;;;;;1.83;0.93;;;7.60;99.90;;;;;;5116674;28;20968;-56
2021/12/19 13:58:20;;;;;;;2.63;0.80;;;7.60;99.90;;;;;;5116980;28;20498;-58
2021/12/19 14:00:51;;;;;;;1.37;1.07;;;7.60;99.90;;;;;;5116664;28;20507;-53
2021/12/19 14:03:18;;;;;;;8.00;1.53;;;7.70;99.90;;;;;;5116551;28;20758;-55
2021/12/19 14:05:47;;;;;;;1.60;1.27;;;7.70;99.90;;;;;;5116980;28;20445;-55